Hauptseite
METAR-TAF:

METAR-TAF

Flughäfen :

Flughafen Damaskus

Damaskus, Syrien

Breite: 33-25N, Länge: 036-31E, Höhe: 608 m

Beobachtung

Neuester Wetterbericht von vor 14 Minuten, um 10:00 UTC
Wind 10 kt aus Süd/Südwest
Temperatur 34°C
Luftfeuchtigkeit 28%
Luftdruck 1010 hPa
Sichtweite 10 km oder mehr
keine Wolken unter 1500 m und keine Kumulonimbus oder Gewitterwolken

METAR: OSDI 161000Z 21010KT CAVOK 34/13 Q1010

Zeit: 13:14 (10:14 UTC)

Prognose

Gültige Prognose vom 16 um 06 UTC bis 17 um 12 UTC
Wind 10 kt aus Südwest
Sichtweite 10 km oder mehr
keine Wolken unter 1500 m und keine Kumulonimbus oder Gewitterwolken
Zeitweise
vom 16 um 12 UTC bis 16 um 18 UTC
Wind 15 kt aus West/Südwest, Böen bis zu 25 kt
Sichtweite 10 km oder mehr
Leicht bewölkt in der Höhe von 3000 ft

TAF: OSDI 1606/1712 22010KT CAVOK TEMPO 1612/1618 24015G25KT 9999 FEW030

Wetterbeobachtungen und Prognosen von mehr als 4000 Flughäfen (METAR und TAF Bericht).

Die verfügbaren Stationen werden durch gelbe und rote Markierungen auf der Karte dargestellt.

Führen Sie die Maus auf sie, um den Namen der Station zu sehen.

Darauf klicken, um die Beobachtung von Wetterbeobachtungen und Prognosen zu sehen.

Um die Karte zu ändern : klicken Sie auf den grünen Tasten mit einem schwarzen Kreuz Zum Vergrößern, auf den grünen Button mit einem Gedankenstrich zu verkleinern, oder auf die grünen Pfeile für benachbarte Karten.


METAR-TAF: